<?xml version="1.0" encoding="UTF-8" standalone="no" ?>
<gpx xmlns="http://www.topografix.com/GPX/1/1" xmlns:xsi="http://www.w3.org/2001/XMLSchema-instance" xsi:schemaLocation="http://www.topografix.com/GPX/1/1 http://www.topografix.com/GPX/1/1/gpx.xsd" version="1.1" creator="VisuGPX - https://www.visugpx.com">
  <metadata>
    <name>Taoulet d'Aouet</name>
    <desc><![CDATA[Ski de randonnée au Taoulet d'Aouert par le val d'Arize.]]></desc>
  </metadata>
  <wpt lat="42.92717" lon="0.19849">
    <ele>1261.52</ele>
    <name><![CDATA[0000022]]></name>
    <type><![CDATA[Point de départ]]></type>
  </wpt>
  <wpt lat="42.94623" lon="0.16009">
    <ele>2010.52</ele>
    <name><![CDATA[0000023]]></name>
    <type><![CDATA[Jalon]]></type>
  </wpt>
  <wpt lat="42.9471" lon="0.1559">
    <ele>2067.52</ele>
    <name><![CDATA[0000024]]></name>
    <desc><![CDATA[<p><br /><h3>Nom: Segment: 1</h3><br />Heure de départ: 03/08/2018 09:10<br/>Heure d'arrivée: 03/08/2018 11:58<br/>Distance: 5,1km (02:47)<br/>Temps déplacement: 01:41<br/>Vitesse moyenne: 1,81 km/h<br/>Vitesse moyenne mouv.: 2,98 km/h<br/>Vitesse Max.: 14,7 km/h<br/>Altitude minimale: 1261 m<br/>Altitude maximale: 2067 m<br/>Vitesse de montée: 328,6 m/h<br/>Vitesse de descente: -132,1 m/h<br/>Gain d'altitude: 825 m<br/>Perte d'altitude: -31 m<br/>Temps de montée: 02:30<br/>Temps de descente: 00:14<br/></p>]]></desc>
    <type><![CDATA[Point d'arrivée]]></type>
  </wpt>
  <wpt lat="42.92701" lon="0.19841">
    <ele>1286.55</ele>
    <name><![CDATA[0000025]]></name>
    <desc><![CDATA[<p><br /><h3>Nom: Segment: 1</h3><br />Heure de départ: 03/08/2018 09:10<br/>Heure d'arrivée: 03/08/2018 14:36<br/>Distance: 12,7km (05:25)<br/>Temps déplacement: 03:00<br/>Vitesse moyenne: 2,34 km/h<br/>Vitesse moyenne mouv.: 4,09 km/h<br/>Vitesse Max.: 34,78 km/h<br/>Altitude minimale: 1251 m<br/>Altitude maximale: 2294 m<br/>Vitesse de montée: 321 m/h<br/>Vitesse de descente: -551 m/h<br/>Gain d'altitude: 1016 m<br/>Perte d'altitude: -1074 m<br/>Temps de montée: 03:09<br/>Temps de descente: 01:57<br/></p>]]></desc>
    <type><![CDATA[Point d'arrivée]]></type>
  </wpt>
  <trk>
    <name><![CDATA[2018-03-08 09:10]]></name>
    <desc><![CDATA[<p>Heure de départ: 03/08/2018 09:10<br/>Heure d'arrivée: 03/08/2018 14:36<br/>Distance: 12,7 km (05:25)<br/>Temps déplacement: 03:00<br/>Vitesse moyenne: 2,34 km/h<br/>Vitesse moyenne mouv.: 4,21 km/h<br/>Vitesse Max.: 34,78 km/h<br/>Altitude minimale: 1251 m<br/>Altitude maximale: 2294 m<br/>Vitesse de montée: 316,4 m/h<br/>Vitesse de descente: -531,3 m/h<br/>Gain d'altitude: 1080 m<br/>Perte d'altitude: -1067 m<br/>Temps de montée: 03:24<br/>Temps de descente: 02:00<br/></p><hr align="center" width="480" style="height: 2px; width: 517px"/>]]></desc>
    <trkseg>
      <trkpt lat="42.92717" lon="0.19849">
        <ele>1261.52</ele>
        <time>2018-03-08T08:10:36Z</time>
      </trkpt>
      <trkpt lat="42.92711" lon="0.19826">
        <ele>1283.52</ele>
        <time>2018-03-08T08:14:37Z</time>
      </trkpt>
      <trkpt lat="42.92726" lon="0.19812">
        <ele>1283.58</ele>
        <time>2018-03-08T08:15:08Z</time>
      </trkpt>
      <trkpt lat="42.9271" lon="0.19803">
        <ele>1290.53</ele>
        <time>2018-03-08T08:15:52Z</time>
      </trkpt>
      <trkpt lat="42.92693" lon="0.19791">
        <ele>1295.46</ele>
        <time>2018-03-08T08:16:15Z</time>
      </trkpt>
      <trkpt lat="42.92691" lon="0.19766">
        <ele>1299.12</ele>
        <time>2018-03-08T08:16:36Z</time>
      </trkpt>
      <trkpt lat="42.92694" lon="0.19741">
        <ele>1308.21</ele>
        <time>2018-03-08T08:17:06Z</time>
      </trkpt>
      <trkpt lat="42.9269" lon="0.19717">
        <ele>1310.51</ele>
        <time>2018-03-08T08:17:39Z</time>
      </trkpt>
      <trkpt lat="42.92682" lon="0.19694">
        <ele>1319.51</ele>
        <time>2018-03-08T08:18:20Z</time>
      </trkpt>
      <trkpt lat="42.92686" lon="0.19669">
        <ele>1324.23</ele>
        <time>2018-03-08T08:19:05Z</time>
      </trkpt>
      <trkpt lat="42.92685" lon="0.19645">
        <ele>1334.41</ele>
        <time>2018-03-08T08:19:46Z</time>
      </trkpt>
      <trkpt lat="42.92676" lon="0.19623">
        <ele>1337.52</ele>
        <time>2018-03-08T08:20:37Z</time>
      </trkpt>
      <trkpt lat="42.92661" lon="0.19608">
        <ele>1344.22</ele>
        <time>2018-03-08T08:21:22Z</time>
      </trkpt>
      <trkpt lat="42.92645" lon="0.19593">
        <ele>1355.52</ele>
        <time>2018-03-08T08:22:05Z</time>
      </trkpt>
      <trkpt lat="42.9263" lon="0.1958">
        <ele>1356.81</ele>
        <time>2018-03-08T08:22:36Z</time>
      </trkpt>
      <trkpt lat="42.92628" lon="0.19554">
        <ele>1359.22</ele>
        <time>2018-03-08T08:23:04Z</time>
      </trkpt>
      <trkpt lat="42.92624" lon="0.19529">
        <ele>1364.52</ele>
        <time>2018-03-08T08:23:38Z</time>
      </trkpt>
      <trkpt lat="42.92627" lon="0.19504">
        <ele>1369.52</ele>
        <time>2018-03-08T08:24:12Z</time>
      </trkpt>
      <trkpt lat="42.92631" lon="0.19478">
        <ele>1368.82</ele>
        <time>2018-03-08T08:24:47Z</time>
      </trkpt>
      <trkpt lat="42.92631" lon="0.19453">
        <ele>1373.43</ele>
        <time>2018-03-08T08:25:20Z</time>
      </trkpt>
      <trkpt lat="42.92629" lon="0.19427">
        <ele>1379.22</ele>
        <time>2018-03-08T08:25:54Z</time>
      </trkpt>
      <trkpt lat="42.92625" lon="0.19403">
        <ele>1384.4</ele>
        <time>2018-03-08T08:26:19Z</time>
      </trkpt>
      <trkpt lat="42.92621" lon="0.19379">
        <ele>1393.4</ele>
        <time>2018-03-08T08:26:44Z</time>
      </trkpt>
      <trkpt lat="42.92614" lon="0.19356">
        <ele>1393.82</ele>
        <time>2018-03-08T08:27:14Z</time>
      </trkpt>
      <trkpt lat="42.92596" lon="0.19347">
        <ele>1394.58</ele>
        <time>2018-03-08T08:27:43Z</time>
      </trkpt>
      <trkpt lat="42.92579" lon="0.19341">
        <ele>1400.52</ele>
        <time>2018-03-08T08:28:16Z</time>
      </trkpt>
      <trkpt lat="42.92561" lon="0.19337">
        <ele>1404.43</ele>
        <time>2018-03-08T08:28:43Z</time>
      </trkpt>
      <trkpt lat="42.92551" lon="0.19316">
        <ele>1407.52</ele>
        <time>2018-03-08T08:29:16Z</time>
      </trkpt>
      <trkpt lat="42.9254" lon="0.19296">
        <ele>1413.81</ele>
        <time>2018-03-08T08:29:47Z</time>
      </trkpt>
      <trkpt lat="42.92539" lon="0.19271">
        <ele>1414.22</ele>
        <time>2018-03-08T08:30:10Z</time>
      </trkpt>
      <trkpt lat="42.92545" lon="0.19247">
        <ele>1418.5</ele>
        <time>2018-03-08T08:30:28Z</time>
      </trkpt>
      <trkpt lat="42.92548" lon="0.19222">
        <ele>1419.61</ele>
        <time>2018-03-08T08:30:48Z</time>
      </trkpt>
      <trkpt lat="42.9255" lon="0.19198">
        <ele>1424.52</ele>
        <time>2018-03-08T08:31:10Z</time>
      </trkpt>
      <trkpt lat="42.92556" lon="0.19174">
        <ele>1425.5</ele>
        <time>2018-03-08T08:31:29Z</time>
      </trkpt>
      <trkpt lat="42.92562" lon="0.19149">
        <ele>1429.49</ele>
        <time>2018-03-08T08:31:50Z</time>
      </trkpt>
      <trkpt lat="42.92569" lon="0.19126">
        <ele>1431.82</ele>
        <time>2018-03-08T08:32:10Z</time>
      </trkpt>
      <trkpt lat="42.92575" lon="0.19103">
        <ele>1432.5</ele>
        <time>2018-03-08T08:32:29Z</time>
      </trkpt>
      <trkpt lat="42.92581" lon="0.19079">
        <ele>1432.81</ele>
        <time>2018-03-08T08:32:54Z</time>
      </trkpt>
      <trkpt lat="42.92592" lon="0.19059">
        <ele>1435.52</ele>
        <time>2018-03-08T08:33:18Z</time>
      </trkpt>
      <trkpt lat="42.92595" lon="0.19032">
        <ele>1439.53</ele>
        <time>2018-03-08T08:34:03Z</time>
      </trkpt>
      <trkpt lat="42.92599" lon="0.19009">
        <ele>1443.82</ele>
        <time>2018-03-08T08:34:38Z</time>
      </trkpt>
      <trkpt lat="42.92606" lon="0.18985">
        <ele>1449.58</ele>
        <time>2018-03-08T08:35:12Z</time>
      </trkpt>
      <trkpt lat="42.92607" lon="0.1896">
        <ele>1453.34</ele>
        <time>2018-03-08T08:35:44Z</time>
      </trkpt>
      <trkpt lat="42.9261" lon="0.18934">
        <ele>1454.22</ele>
        <time>2018-03-08T08:41:09Z</time>
      </trkpt>
      <trkpt lat="42.92608" lon="0.1891">
        <ele>1458.85</ele>
        <time>2018-03-08T08:41:33Z</time>
      </trkpt>
      <trkpt lat="42.92604" lon="0.18885">
        <ele>1461.55</ele>
        <time>2018-03-08T08:42:02Z</time>
      </trkpt>
      <trkpt lat="42.92594" lon="0.18863">
        <ele>1459.52</ele>
        <time>2018-03-08T08:42:27Z</time>
      </trkpt>
      <trkpt lat="42.9259" lon="0.18838">
        <ele>1465.52</ele>
        <time>2018-03-08T08:42:51Z</time>
      </trkpt>
      <trkpt lat="42.92591" lon="0.18813">
        <ele>1469.52</ele>
        <time>2018-03-08T08:43:16Z</time>
      </trkpt>
      <trkpt lat="42.92596" lon="0.18789">
        <ele>1477.52</ele>
        <time>2018-03-08T08:43:46Z</time>
      </trkpt>
      <trkpt lat="42.926" lon="0.18764">
        <ele>1481.22</ele>
        <time>2018-03-08T08:44:10Z</time>
      </trkpt>
      <trkpt lat="42.92608" lon="0.18742">
        <ele>1484.52</ele>
        <time>2018-03-08T08:44:34Z</time>
      </trkpt>
      <trkpt lat="42.92607" lon="0.18717">
        <ele>1489.16</ele>
        <time>2018-03-08T08:44:55Z</time>
      </trkpt>
      <trkpt lat="42.92606" lon="0.18692">
        <ele>1495.93</ele>
        <time>2018-03-08T08:45:23Z</time>
      </trkpt>
      <trkpt lat="42.9261" lon="0.18668">
        <ele>1500.31</ele>
        <time>2018-03-08T08:45:49Z</time>
      </trkpt>
      <trkpt lat="42.9262" lon="0.18647">
        <ele>1501.81</ele>
        <time>2018-03-08T08:46:16Z</time>
      </trkpt>
      <trkpt lat="42.92619" lon="0.18622">
        <ele>1505.49</ele>
        <time>2018-03-08T08:46:39Z</time>
      </trkpt>
      <trkpt lat="42.92626" lon="0.18599">
        <ele>1508.51</ele>
        <time>2018-03-08T08:47:01Z</time>
      </trkpt>
      <trkpt lat="42.92635" lon="0.18577">
        <ele>1513.43</ele>
        <time>2018-03-08T08:47:25Z</time>
      </trkpt>
      <trkpt lat="42.92649" lon="0.1856">
        <ele>1516.43</ele>
        <time>2018-03-08T08:47:52Z</time>
      </trkpt>
      <trkpt lat="42.9266" lon="0.1854">
        <ele>1520.41</ele>
        <time>2018-03-08T08:48:16Z</time>
      </trkpt>
      <trkpt lat="42.92672" lon="0.18521">
        <ele>1523.5</ele>
        <time>2018-03-08T08:48:42Z</time>
      </trkpt>
      <trkpt lat="42.92683" lon="0.18499">
        <ele>1526.52</ele>
        <time>2018-03-08T08:49:05Z</time>
      </trkpt>
      <trkpt lat="42.92697" lon="0.18483">
        <ele>1532.19</ele>
        <time>2018-03-08T08:49:24Z</time>
      </trkpt>
      <trkpt lat="42.92711" lon="0.18465">
        <ele>1535.52</ele>
        <time>2018-03-08T08:49:45Z</time>
      </trkpt>
      <trkpt lat="42.92727" lon="0.18452">
        <ele>1540.52</ele>
        <time>2018-03-08T08:50:07Z</time>
      </trkpt>
      <trkpt lat="42.92744" lon="0.18442">
        <ele>1543.22</ele>
        <time>2018-03-08T08:50:28Z</time>
      </trkpt>
      <trkpt lat="42.92761" lon="0.18432">
        <ele>1544.52</ele>
        <time>2018-03-08T08:50:52Z</time>
      </trkpt>
      <trkpt lat="42.92773" lon="0.18413">
        <ele>1548.22</ele>
        <time>2018-03-08T08:51:16Z</time>
      </trkpt>
      <trkpt lat="42.92787" lon="0.18395">
        <ele>1550.52</ele>
        <time>2018-03-08T08:51:41Z</time>
      </trkpt>
      <trkpt lat="42.92793" lon="0.18372">
        <ele>1550.52</ele>
        <time>2018-03-08T08:52:03Z</time>
      </trkpt>
      <trkpt lat="42.928" lon="0.18349">
        <ele>1552.55</ele>
        <time>2018-03-08T08:52:27Z</time>
      </trkpt>
      <trkpt lat="42.92804" lon="0.18325">
        <ele>1553.52</ele>
        <time>2018-03-08T08:52:50Z</time>
      </trkpt>
      <trkpt lat="42.92805" lon="0.183">
        <ele>1554.53</ele>
        <time>2018-03-08T08:53:12Z</time>
      </trkpt>
      <trkpt lat="42.92814" lon="0.18278">
        <ele>1557.52</ele>
        <time>2018-03-08T08:53:32Z</time>
      </trkpt>
      <trkpt lat="42.92825" lon="0.18258">
        <ele>1560.22</ele>
        <time>2018-03-08T08:53:52Z</time>
      </trkpt>
      <trkpt lat="42.92837" lon="0.18239">
        <ele>1567.43</ele>
        <time>2018-03-08T08:54:16Z</time>
      </trkpt>
      <trkpt lat="42.92847" lon="0.18218">
        <ele>1568.6</ele>
        <time>2018-03-08T08:54:38Z</time>
      </trkpt>
      <trkpt lat="42.92857" lon="0.18197">
        <ele>1571.22</ele>
        <time>2018-03-08T08:55:00Z</time>
      </trkpt>
      <trkpt lat="42.92867" lon="0.18177">
        <ele>1574.52</ele>
        <time>2018-03-08T08:55:20Z</time>
      </trkpt>
      <trkpt lat="42.92882" lon="0.18164">
        <ele>1575.84</ele>
        <time>2018-03-08T08:55:42Z</time>
      </trkpt>
      <trkpt lat="42.92893" lon="0.18144">
        <ele>1574.82</ele>
        <time>2018-03-08T08:56:07Z</time>
      </trkpt>
      <trkpt lat="42.92908" lon="0.18129">
        <ele>1574.54</ele>
        <time>2018-03-08T08:56:30Z</time>
      </trkpt>
      <trkpt lat="42.92924" lon="0.18117">
        <ele>1574.52</ele>
        <time>2018-03-08T08:56:53Z</time>
      </trkpt>
      <trkpt lat="42.92938" lon="0.181">
        <ele>1575.22</ele>
        <time>2018-03-08T08:57:19Z</time>
      </trkpt>
      <trkpt lat="42.92954" lon="0.18086">
        <ele>1577.13</ele>
        <time>2018-03-08T08:57:40Z</time>
      </trkpt>
      <trkpt lat="42.92969" lon="0.18071">
        <ele>1580.52</ele>
        <time>2018-03-08T08:58:03Z</time>
      </trkpt>
      <trkpt lat="42.92985" lon="0.18057">
        <ele>1582.52</ele>
        <time>2018-03-08T08:58:23Z</time>
      </trkpt>
      <trkpt lat="42.92992" lon="0.18034">
        <ele>1581.83</ele>
        <time>2018-03-08T08:58:48Z</time>
      </trkpt>
      <trkpt lat="42.93001" lon="0.18011">
        <ele>1581.52</ele>
        <time>2018-03-08T08:59:10Z</time>
      </trkpt>
      <trkpt lat="42.93016" lon="0.17997">
        <ele>1586.43</ele>
        <time>2018-03-08T08:59:32Z</time>
      </trkpt>
      <trkpt lat="42.93026" lon="0.17975">
        <ele>1586.51</ele>
        <time>2018-03-08T08:59:56Z</time>
      </trkpt>
      <trkpt lat="42.93035" lon="0.17953">
        <ele>1587.52</ele>
        <time>2018-03-08T09:00:18Z</time>
      </trkpt>
      <trkpt lat="42.93044" lon="0.17931">
        <ele>1585.52</ele>
        <time>2018-03-08T09:00:39Z</time>
      </trkpt>
      <trkpt lat="42.93056" lon="0.17912">
        <ele>1587.21</ele>
        <time>2018-03-08T09:01:00Z</time>
      </trkpt>
      <trkpt lat="42.93071" lon="0.17897">
        <ele>1589.61</ele>
        <time>2018-03-08T09:01:23Z</time>
      </trkpt>
      <trkpt lat="42.93079" lon="0.17874">
        <ele>1591.52</ele>
        <time>2018-03-08T09:01:47Z</time>
      </trkpt>
      <trkpt lat="42.93091" lon="0.17855">
        <ele>1593.52</ele>
        <time>2018-03-08T09:02:07Z</time>
      </trkpt>
      <trkpt lat="42.93102" lon="0.17835">
        <ele>1594.53</ele>
        <time>2018-03-08T09:02:28Z</time>
      </trkpt>
      <trkpt lat="42.93107" lon="0.17811">
        <ele>1594.52</ele>
        <time>2018-03-08T09:02:55Z</time>
      </trkpt>
      <trkpt lat="42.93112" lon="0.17786">
        <ele>1596.52</ele>
        <time>2018-03-08T09:03:23Z</time>
      </trkpt>
      <trkpt lat="42.93116" lon="0.17762">
        <ele>1597.61</ele>
        <time>2018-03-08T09:06:53Z</time>
      </trkpt>
      <trkpt lat="42.93117" lon="0.17737">
        <ele>1599.51</ele>
        <time>2018-03-08T09:07:17Z</time>
      </trkpt>
      <trkpt lat="42.93123" lon="0.17714">
        <ele>1605.22</ele>
        <time>2018-03-08T09:07:37Z</time>
      </trkpt>
      <trkpt lat="42.93132" lon="0.17692">
        <ele>1606.52</ele>
        <time>2018-03-08T09:07:57Z</time>
      </trkpt>
      <trkpt lat="42.93142" lon="0.1767">
        <ele>1610.52</ele>
        <time>2018-03-08T09:08:18Z</time>
      </trkpt>
      <trkpt lat="42.93154" lon="0.17651">
        <ele>1609.52</ele>
        <time>2018-03-08T09:08:40Z</time>
      </trkpt>
      <trkpt lat="42.93164" lon="0.17629">
        <ele>1611.49</ele>
        <time>2018-03-08T09:09:01Z</time>
      </trkpt>
      <trkpt lat="42.93171" lon="0.17606">
        <ele>1612.6</ele>
        <time>2018-03-08T09:09:20Z</time>
      </trkpt>
      <trkpt lat="42.93179" lon="0.17584">
        <ele>1616.55</ele>
        <time>2018-03-08T09:09:40Z</time>
      </trkpt>
      <trkpt lat="42.93191" lon="0.17565">
        <ele>1619.52</ele>
        <time>2018-03-08T09:10:05Z</time>
      </trkpt>
      <trkpt lat="42.93208" lon="0.17555">
        <ele>1619.52</ele>
        <time>2018-03-08T09:10:27Z</time>
      </trkpt>
      <trkpt lat="42.93217" lon="0.17533">
        <ele>1623.21</ele>
        <time>2018-03-08T09:10:52Z</time>
      </trkpt>
      <trkpt lat="42.93223" lon="0.1751">
        <ele>1623.31</ele>
        <time>2018-03-08T09:11:15Z</time>
      </trkpt>
      <trkpt lat="42.9324" lon="0.1752">
        <ele>1623.14</ele>
        <time>2018-03-08T09:11:50Z</time>
      </trkpt>
      <trkpt lat="42.93256" lon="0.17509">
        <ele>1630.73</ele>
        <time>2018-03-08T09:13:05Z</time>
      </trkpt>
      <trkpt lat="42.93262" lon="0.17486">
        <ele>1631.57</ele>
        <time>2018-03-08T09:13:33Z</time>
      </trkpt>
      <trkpt lat="42.93262" lon="0.1746">
        <ele>1629.53</ele>
        <time>2018-03-08T09:15:06Z</time>
      </trkpt>
      <trkpt lat="42.93261" lon="0.17435">
        <ele>1634.75</ele>
        <time>2018-03-08T09:15:31Z</time>
      </trkpt>
      <trkpt lat="42.93263" lon="0.1741">
        <ele>1638.51</ele>
        <time>2018-03-08T09:15:55Z</time>
      </trkpt>
      <trkpt lat="42.93274" lon="0.1739">
        <ele>1637.73</ele>
        <time>2018-03-08T09:17:53Z</time>
      </trkpt>
      <trkpt lat="42.9329" lon="0.17401">
        <ele>1642.83</ele>
        <time>2018-03-08T09:20:41Z</time>
      </trkpt>
      <trkpt lat="42.93309" lon="0.17398">
        <ele>1657.22</ele>
        <time>2018-03-08T09:21:54Z</time>
      </trkpt>
      <trkpt lat="42.9332" lon="0.17379">
        <ele>1666.49</ele>
        <time>2018-03-08T09:22:30Z</time>
      </trkpt>
      <trkpt lat="42.93338" lon="0.17371">
        <ele>1675.44</ele>
        <time>2018-03-08T09:23:40Z</time>
      </trkpt>
      <trkpt lat="42.93356" lon="0.17374">
        <ele>1681.22</ele>
        <time>2018-03-08T09:24:37Z</time>
      </trkpt>
      <trkpt lat="42.93375" lon="0.17377">
        <ele>1686.52</ele>
        <time>2018-03-08T09:25:16Z</time>
      </trkpt>
      <trkpt lat="42.93392" lon="0.17367">
        <ele>1696.55</ele>
        <time>2018-03-08T09:30:55Z</time>
      </trkpt>
      <trkpt lat="42.93409" lon="0.1736">
        <ele>1700.52</ele>
        <time>2018-03-08T09:32:29Z</time>
      </trkpt>
      <trkpt lat="42.93427" lon="0.17352">
        <ele>1714.49</ele>
        <time>2018-03-08T09:33:46Z</time>
      </trkpt>
      <trkpt lat="42.93434" lon="0.17329">
        <ele>1724.13</ele>
        <time>2018-03-08T09:34:20Z</time>
      </trkpt>
      <trkpt lat="42.93452" lon="0.17325">
        <ele>1740.42</ele>
        <time>2018-03-08T09:35:45Z</time>
      </trkpt>
      <trkpt lat="42.93463" lon="0.17346">
        <ele>1740.55</ele>
        <time>2018-03-08T09:36:29Z</time>
      </trkpt>
      <trkpt lat="42.93473" lon="0.17326">
        <ele>1751.13</ele>
        <time>2018-03-08T09:37:09Z</time>
      </trkpt>
      <trkpt lat="42.93491" lon="0.17333">
        <ele>1758.52</ele>
        <time>2018-03-08T09:38:14Z</time>
      </trkpt>
      <trkpt lat="42.93506" lon="0.1732">
        <ele>1775.22</ele>
        <time>2018-03-08T09:39:44Z</time>
      </trkpt>
      <trkpt lat="42.93522" lon="0.17332">
        <ele>1786.51</ele>
        <time>2018-03-08T09:41:10Z</time>
      </trkpt>
      <trkpt lat="42.93539" lon="0.17328">
        <ele>1794.34</ele>
        <time>2018-03-08T09:42:57Z</time>
      </trkpt>
      <trkpt lat="42.93557" lon="0.17324">
        <ele>1800.61</ele>
        <time>2018-03-08T09:44:32Z</time>
      </trkpt>
      <trkpt lat="42.93574" lon="0.17313">
        <ele>1806.51</ele>
        <time>2018-03-08T09:45:01Z</time>
      </trkpt>
      <trkpt lat="42.93585" lon="0.17293">
        <ele>1814.45</ele>
        <time>2018-03-08T09:50:53Z</time>
      </trkpt>
      <trkpt lat="42.936" lon="0.17278">
        <ele>1816.8</ele>
        <time>2018-03-08T09:51:23Z</time>
      </trkpt>
      <trkpt lat="42.93609" lon="0.17257">
        <ele>1820.49</ele>
        <time>2018-03-08T09:51:56Z</time>
      </trkpt>
      <trkpt lat="42.9362" lon="0.17237">
        <ele>1827.25</ele>
        <time>2018-03-08T09:52:27Z</time>
      </trkpt>
      <trkpt lat="42.93635" lon="0.17224">
        <ele>1829.52</ele>
        <time>2018-03-08T09:52:58Z</time>
      </trkpt>
      <trkpt lat="42.93651" lon="0.17212">
        <ele>1834.31</ele>
        <time>2018-03-08T09:53:28Z</time>
      </trkpt>
      <trkpt lat="42.93667" lon="0.172">
        <ele>1837.6</ele>
        <time>2018-03-08T09:53:53Z</time>
      </trkpt>
      <trkpt lat="42.9368" lon="0.17183">
        <ele>1842.22</ele>
        <time>2018-03-08T09:54:22Z</time>
      </trkpt>
      <trkpt lat="42.93675" lon="0.17159">
        <ele>1850.22</ele>
        <time>2018-03-08T09:55:00Z</time>
      </trkpt>
      <trkpt lat="42.93682" lon="0.17136">
        <ele>1860.52</ele>
        <time>2018-03-08T09:55:58Z</time>
      </trkpt>
      <trkpt lat="42.93682" lon="0.17111">
        <ele>1865.52</ele>
        <time>2018-03-08T09:56:54Z</time>
      </trkpt>
      <trkpt lat="42.93689" lon="0.17089">
        <ele>1872.52</ele>
        <time>2018-03-08T09:57:24Z</time>
      </trkpt>
      <trkpt lat="42.93705" lon="0.17074">
        <ele>1879.52</ele>
        <time>2018-03-08T09:58:19Z</time>
      </trkpt>
      <trkpt lat="42.93717" lon="0.17054">
        <ele>1886.52</ele>
        <time>2018-03-08T09:58:53Z</time>
      </trkpt>
      <trkpt lat="42.93726" lon="0.17033">
        <ele>1890.52</ele>
        <time>2018-03-08T09:59:24Z</time>
      </trkpt>
      <trkpt lat="42.93736" lon="0.17011">
        <ele>1895.43</ele>
        <time>2018-03-08T09:59:53Z</time>
      </trkpt>
      <trkpt lat="42.93748" lon="0.16993">
        <ele>1898.51</ele>
        <time>2018-03-08T10:00:18Z</time>
      </trkpt>
      <trkpt lat="42.93759" lon="0.16973">
        <ele>1901.52</ele>
        <time>2018-03-08T10:00:38Z</time>
      </trkpt>
      <trkpt lat="42.93771" lon="0.16953">
        <ele>1904.52</ele>
        <time>2018-03-08T10:01:00Z</time>
      </trkpt>
      <trkpt lat="42.93781" lon="0.16933">
        <ele>1908.51</ele>
        <time>2018-03-08T10:01:22Z</time>
      </trkpt>
      <trkpt lat="42.93793" lon="0.16913">
        <ele>1909.52</ele>
        <time>2018-03-08T10:02:39Z</time>
      </trkpt>
      <trkpt lat="42.93803" lon="0.16893">
        <ele>1914.52</ele>
        <time>2018-03-08T10:03:03Z</time>
      </trkpt>
      <trkpt lat="42.93816" lon="0.16873">
        <ele>1916.52</ele>
        <time>2018-03-08T10:03:32Z</time>
      </trkpt>
      <trkpt lat="42.93828" lon="0.16855">
        <ele>1921.52</ele>
        <time>2018-03-08T10:03:59Z</time>
      </trkpt>
      <trkpt lat="42.93839" lon="0.16835">
        <ele>1924.82</ele>
        <time>2018-03-08T10:04:26Z</time>
      </trkpt>
      <trkpt lat="42.93852" lon="0.16817">
        <ele>1926.52</ele>
        <time>2018-03-08T10:04:52Z</time>
      </trkpt>
      <trkpt lat="42.93864" lon="0.16797">
        <ele>1931.52</ele>
        <time>2018-03-08T10:05:18Z</time>
      </trkpt>
      <trkpt lat="42.93875" lon="0.16777">
        <ele>1936.49</ele>
        <time>2018-03-08T10:05:46Z</time>
      </trkpt>
      <trkpt lat="42.93886" lon="0.16757">
        <ele>1942.22</ele>
        <time>2018-03-08T10:06:15Z</time>
      </trkpt>
      <trkpt lat="42.93901" lon="0.16744">
        <ele>1944.45</ele>
        <time>2018-03-08T10:06:43Z</time>
      </trkpt>
      <trkpt lat="42.93914" lon="0.16726">
        <ele>1948.52</ele>
        <time>2018-03-08T10:07:08Z</time>
      </trkpt>
      <trkpt lat="42.93929" lon="0.16712">
        <ele>1949.52</ele>
        <time>2018-03-08T10:07:34Z</time>
      </trkpt>
      <trkpt lat="42.93946" lon="0.16704">
        <ele>1952.51</ele>
        <time>2018-03-08T10:08:00Z</time>
      </trkpt>
      <trkpt lat="42.9396" lon="0.16688">
        <ele>1952.52</ele>
        <time>2018-03-08T10:08:21Z</time>
      </trkpt>
      <trkpt lat="42.93975" lon="0.16675">
        <ele>1951.52</ele>
        <time>2018-03-08T10:12:37Z</time>
      </trkpt>
      <trkpt lat="42.93986" lon="0.16654">
        <ele>1946.55</ele>
        <time>2018-03-08T10:12:47Z</time>
      </trkpt>
      <trkpt lat="42.93996" lon="0.16632">
        <ele>1944.53</ele>
        <time>2018-03-08T10:12:58Z</time>
      </trkpt>
      <trkpt lat="42.94009" lon="0.16612">
        <ele>1941.62</ele>
        <time>2018-03-08T10:13:08Z</time>
      </trkpt>
      <trkpt lat="42.94018" lon="0.1659">
        <ele>1940.82</ele>
        <time>2018-03-08T10:13:17Z</time>
      </trkpt>
      <trkpt lat="42.9403" lon="0.16571">
        <ele>1938.82</ele>
        <time>2018-03-08T10:13:36Z</time>
      </trkpt>
      <trkpt lat="42.94041" lon="0.16547">
        <ele>1940.52</ele>
        <time>2018-03-08T10:13:53Z</time>
      </trkpt>
      <trkpt lat="42.9405" lon="0.16523">
        <ele>1939.61</ele>
        <time>2018-03-08T10:13:59Z</time>
      </trkpt>
      <trkpt lat="42.94064" lon="0.16506">
        <ele>1936.52</ele>
        <time>2018-03-08T10:14:18Z</time>
      </trkpt>
      <trkpt lat="42.94081" lon="0.16496">
        <ele>1934.82</ele>
        <time>2018-03-08T10:14:37Z</time>
      </trkpt>
      <trkpt lat="42.941" lon="0.16494">
        <ele>1932.82</ele>
        <time>2018-03-08T10:14:59Z</time>
      </trkpt>
      <trkpt lat="42.94118" lon="0.16495">
        <ele>1935.19</ele>
        <time>2018-03-08T10:15:29Z</time>
      </trkpt>
      <trkpt lat="42.94136" lon="0.16492">
        <ele>1935.22</ele>
        <time>2018-03-08T10:15:51Z</time>
      </trkpt>
      <trkpt lat="42.94155" lon="0.16491">
        <ele>1934.59</ele>
        <time>2018-03-08T10:16:12Z</time>
      </trkpt>
      <trkpt lat="42.94173" lon="0.16488">
        <ele>1933.22</ele>
        <time>2018-03-08T10:16:34Z</time>
      </trkpt>
      <trkpt lat="42.94192" lon="0.16488">
        <ele>1929.52</ele>
        <time>2018-03-08T10:16:59Z</time>
      </trkpt>
      <trkpt lat="42.94211" lon="0.16486">
        <ele>1931.31</ele>
        <time>2018-03-08T10:17:21Z</time>
      </trkpt>
      <trkpt lat="42.94227" lon="0.16475">
        <ele>1932.52</ele>
        <time>2018-03-08T10:17:42Z</time>
      </trkpt>
      <trkpt lat="42.94242" lon="0.16459">
        <ele>1936.79</ele>
        <time>2018-03-08T10:18:04Z</time>
      </trkpt>
      <trkpt lat="42.94258" lon="0.16447">
        <ele>1936.5</ele>
        <time>2018-03-08T10:18:25Z</time>
      </trkpt>
      <trkpt lat="42.94276" lon="0.16445">
        <ele>1938.52</ele>
        <time>2018-03-08T10:18:47Z</time>
      </trkpt>
      <trkpt lat="42.94294" lon="0.16439">
        <ele>1938.54</ele>
        <time>2018-03-08T10:19:05Z</time>
      </trkpt>
      <trkpt lat="42.94311" lon="0.16427">
        <ele>1940.52</ele>
        <time>2018-03-08T10:19:28Z</time>
      </trkpt>
      <trkpt lat="42.9433" lon="0.16422">
        <ele>1942.52</ele>
        <time>2018-03-08T10:19:49Z</time>
      </trkpt>
      <trkpt lat="42.94348" lon="0.16412">
        <ele>1940.82</ele>
        <time>2018-03-08T10:20:00Z</time>
      </trkpt>
      <trkpt lat="42.94368" lon="0.16399">
        <ele>1937.62</ele>
        <time>2018-03-08T10:20:06Z</time>
      </trkpt>
      <trkpt lat="42.94382" lon="0.16383">
        <ele>1935.62</ele>
        <time>2018-03-08T10:20:11Z</time>
      </trkpt>
      <trkpt lat="42.94391" lon="0.16361">
        <ele>1933.52</ele>
        <time>2018-03-08T10:20:25Z</time>
      </trkpt>
      <trkpt lat="42.94401" lon="0.1634">
        <ele>1929.52</ele>
        <time>2018-03-08T10:20:51Z</time>
      </trkpt>
      <trkpt lat="42.94417" lon="0.16328">
        <ele>1931.58</ele>
        <time>2018-03-08T10:21:17Z</time>
      </trkpt>
      <trkpt lat="42.94428" lon="0.16307">
        <ele>1932.52</ele>
        <time>2018-03-08T10:21:36Z</time>
      </trkpt>
      <trkpt lat="42.94439" lon="0.16286">
        <ele>1928.94</ele>
        <time>2018-03-08T10:21:59Z</time>
      </trkpt>
      <trkpt lat="42.94454" lon="0.16272">
        <ele>1931.6</ele>
        <time>2018-03-08T10:22:21Z</time>
      </trkpt>
      <trkpt lat="42.94465" lon="0.16251">
        <ele>1931.28</ele>
        <time>2018-03-08T10:22:45Z</time>
      </trkpt>
      <trkpt lat="42.94478" lon="0.16233">
        <ele>1932.52</ele>
        <time>2018-03-08T10:23:07Z</time>
      </trkpt>
      <trkpt lat="42.94492" lon="0.16217">
        <ele>1934.52</ele>
        <time>2018-03-08T10:23:34Z</time>
      </trkpt>
      <trkpt lat="42.94502" lon="0.16197">
        <ele>1936.5</ele>
        <time>2018-03-08T10:23:58Z</time>
      </trkpt>
      <trkpt lat="42.94506" lon="0.16173">
        <ele>1937.52</ele>
        <time>2018-03-08T10:24:32Z</time>
      </trkpt>
      <trkpt lat="42.945" lon="0.16149">
        <ele>1945.51</ele>
        <time>2018-03-08T10:26:02Z</time>
      </trkpt>
      <trkpt lat="42.94505" lon="0.16125">
        <ele>1947.52</ele>
        <time>2018-03-08T10:26:31Z</time>
      </trkpt>
      <trkpt lat="42.94514" lon="0.16104">
        <ele>1950.53</ele>
        <time>2018-03-08T10:26:56Z</time>
      </trkpt>
      <trkpt lat="42.94528" lon="0.16088">
        <ele>1952.22</ele>
        <time>2018-03-08T10:27:27Z</time>
      </trkpt>
      <trkpt lat="42.94542" lon="0.16072">
        <ele>1956.51</ele>
        <time>2018-03-08T10:27:56Z</time>
      </trkpt>
      <trkpt lat="42.9456" lon="0.16068">
        <ele>1963.2</ele>
        <time>2018-03-08T10:28:45Z</time>
      </trkpt>
      <trkpt lat="42.94576" lon="0.16055">
        <ele>1970.31</ele>
        <time>2018-03-08T10:29:47Z</time>
      </trkpt>
      <trkpt lat="42.94587" lon="0.16075">
        <ele>1976.52</ele>
        <time>2018-03-08T10:30:31Z</time>
      </trkpt>
      <trkpt lat="42.94605" lon="0.16075">
        <ele>1987.43</ele>
        <time>2018-03-08T10:31:52Z</time>
      </trkpt>
      <trkpt lat="42.94614" lon="0.16097">
        <ele>1991.45</ele>
        <time>2018-03-08T10:32:18Z</time>
      </trkpt>
      <trkpt lat="42.94618" lon="0.16072">
        <ele>1996.23</ele>
        <time>2018-03-08T10:32:53Z</time>
      </trkpt>
      <trkpt lat="42.94618" lon="0.16047">
        <ele>2003.22</ele>
        <time>2018-03-08T10:33:38Z</time>
      </trkpt>
      <trkpt lat="42.94623" lon="0.16023">
        <ele>2004.49</ele>
        <time>2018-03-08T10:34:04Z</time>
      </trkpt>
      <trkpt lat="42.94631" lon="0.16">
        <ele>2007.52</ele>
        <time>2018-03-08T10:47:46Z</time>
      </trkpt>
      <trkpt lat="42.94638" lon="0.15977">
        <ele>2005.43</ele>
        <time>2018-03-08T10:48:11Z</time>
      </trkpt>
      <trkpt lat="42.94647" lon="0.15955">
        <ele>2005.52</ele>
        <time>2018-03-08T10:48:42Z</time>
      </trkpt>
      <trkpt lat="42.94652" lon="0.15931">
        <ele>2007.6</ele>
        <time>2018-03-08T10:49:04Z</time>
      </trkpt>
      <trkpt lat="42.94656" lon="0.15906">
        <ele>2009.5</ele>
        <time>2018-03-08T10:49:30Z</time>
      </trkpt>
      <trkpt lat="42.94657" lon="0.15881">
        <ele>2014.43</ele>
        <time>2018-03-08T10:49:58Z</time>
      </trkpt>
      <trkpt lat="42.94667" lon="0.15861">
        <ele>2014.82</ele>
        <time>2018-03-08T10:50:28Z</time>
      </trkpt>
      <trkpt lat="42.94679" lon="0.15841">
        <ele>2016.41</ele>
        <time>2018-03-08T10:50:54Z</time>
      </trkpt>
      <trkpt lat="42.94675" lon="0.15816">
        <ele>2022.52</ele>
        <time>2018-03-08T10:51:10Z</time>
      </trkpt>
      <trkpt lat="42.94676" lon="0.15791">
        <ele>2029.43</ele>
        <time>2018-03-08T10:51:32Z</time>
      </trkpt>
      <trkpt lat="42.94681" lon="0.15766">
        <ele>2029.52</ele>
        <time>2018-03-08T10:51:54Z</time>
      </trkpt>
      <trkpt lat="42.94677" lon="0.15739">
        <ele>2031.19</ele>
        <time>2018-03-08T10:52:09Z</time>
      </trkpt>
      <trkpt lat="42.94682" lon="0.15714">
        <ele>2024.79</ele>
        <time>2018-03-08T10:52:34Z</time>
      </trkpt>
      <trkpt lat="42.94682" lon="0.1569">
        <ele>2026.55</ele>
        <time>2018-03-08T10:53:01Z</time>
      </trkpt>
      <trkpt lat="42.94683" lon="0.15665">
        <ele>2035.52</ele>
        <time>2018-03-08T10:53:47Z</time>
      </trkpt>
      <trkpt lat="42.947" lon="0.15657">
        <ele>2036.52</ele>
        <time>2018-03-08T10:54:15Z</time>
      </trkpt>
      <trkpt lat="42.94718" lon="0.15658">
        <ele>2041.51</ele>
        <time>2018-03-08T10:54:45Z</time>
      </trkpt>
      <trkpt lat="42.94706" lon="0.15639">
        <ele>2047.42</ele>
        <time>2018-03-08T10:55:21Z</time>
      </trkpt>
      <trkpt lat="42.94692" lon="0.15623">
        <ele>2055.52</ele>
        <time>2018-03-08T10:55:51Z</time>
      </trkpt>
      <trkpt lat="42.94709" lon="0.15612">
        <ele>2055.51</ele>
        <time>2018-03-08T10:56:44Z</time>
      </trkpt>
      <trkpt lat="42.94693" lon="0.15599">
        <ele>2062.52</ele>
        <time>2018-03-08T10:57:24Z</time>
      </trkpt>
      <trkpt lat="42.9471" lon="0.1559">
        <ele>2067.52</ele>
        <time>2018-03-08T10:58:20Z</time>
      </trkpt>
      <trkpt lat="42.94834" lon="0.15429">
        <ele>2137.52</ele>
        <time>2018-03-08T11:15:23Z</time>
      </trkpt>
      <trkpt lat="42.94797" lon="0.15445">
        <ele>2182.32</ele>
        <time>2018-03-08T11:15:24Z</time>
      </trkpt>
      <trkpt lat="42.94816" lon="0.15437">
        <ele>2163.96</ele>
        <time>2018-03-08T11:15:35Z</time>
      </trkpt>
      <trkpt lat="42.94827" lon="0.15417">
        <ele>2164.52</ele>
        <time>2018-03-08T11:17:50Z</time>
      </trkpt>
      <trkpt lat="42.94832" lon="0.15394">
        <ele>2164.52</ele>
        <time>2018-03-08T11:18:15Z</time>
      </trkpt>
      <trkpt lat="42.94833" lon="0.15369">
        <ele>2166.22</ele>
        <time>2018-03-08T11:18:46Z</time>
      </trkpt>
      <trkpt lat="42.94836" lon="0.15344">
        <ele>2171.42</ele>
        <time>2018-03-08T11:19:19Z</time>
      </trkpt>
      <trkpt lat="42.94836" lon="0.15319">
        <ele>2176.52</ele>
        <time>2018-03-08T11:19:47Z</time>
      </trkpt>
      <trkpt lat="42.94837" lon="0.15294">
        <ele>2182.52</ele>
        <time>2018-03-08T11:20:23Z</time>
      </trkpt>
      <trkpt lat="42.94835" lon="0.15269">
        <ele>2186.5</ele>
        <time>2018-03-08T11:20:57Z</time>
      </trkpt>
      <trkpt lat="42.94846" lon="0.15249">
        <ele>2194.71</ele>
        <time>2018-03-08T11:21:51Z</time>
      </trkpt>
      <trkpt lat="42.94863" lon="0.15259">
        <ele>2200.52</ele>
        <time>2018-03-08T11:22:26Z</time>
      </trkpt>
      <trkpt lat="42.9487" lon="0.15235">
        <ele>2205.43</ele>
        <time>2018-03-08T11:23:22Z</time>
      </trkpt>
      <trkpt lat="42.94888" lon="0.15234">
        <ele>2216.52</ele>
        <time>2018-03-08T11:24:18Z</time>
      </trkpt>
      <trkpt lat="42.94894" lon="0.15211">
        <ele>2221.23</ele>
        <time>2018-03-08T11:25:44Z</time>
      </trkpt>
      <trkpt lat="42.949" lon="0.15187">
        <ele>2233.52</ele>
        <time>2018-03-08T11:26:49Z</time>
      </trkpt>
      <trkpt lat="42.94893" lon="0.15164">
        <ele>2240.52</ele>
        <time>2018-03-08T11:27:26Z</time>
      </trkpt>
      <trkpt lat="42.94903" lon="0.15143">
        <ele>2253.52</ele>
        <time>2018-03-08T11:35:00Z</time>
      </trkpt>
      <trkpt lat="42.9492" lon="0.1515">
        <ele>2257.22</ele>
        <time>2018-03-08T11:35:32Z</time>
      </trkpt>
      <trkpt lat="42.94936" lon="0.15164">
        <ele>2261.52</ele>
        <time>2018-03-08T11:36:05Z</time>
      </trkpt>
      <trkpt lat="42.94954" lon="0.15163">
        <ele>2268.13</ele>
        <time>2018-03-08T11:36:32Z</time>
      </trkpt>
      <trkpt lat="42.9497" lon="0.15174">
        <ele>2270.52</ele>
        <time>2018-03-08T11:36:57Z</time>
      </trkpt>
      <trkpt lat="42.94978" lon="0.15197">
        <ele>2277.21</ele>
        <time>2018-03-08T11:37:25Z</time>
      </trkpt>
      <trkpt lat="42.94989" lon="0.15218">
        <ele>2283.51</ele>
        <time>2018-03-08T11:38:27Z</time>
      </trkpt>
      <trkpt lat="42.95" lon="0.15237">
        <ele>2290.13</ele>
        <time>2018-03-08T11:39:18Z</time>
      </trkpt>
      <trkpt lat="42.95015" lon="0.15253">
        <ele>2292.52</ele>
        <time>2018-03-08T11:39:41Z</time>
      </trkpt>
      <trkpt lat="42.95019" lon="0.15277">
        <ele>2294.52</ele>
        <time>2018-03-08T11:40:07Z</time>
      </trkpt>
      <trkpt lat="42.95014" lon="0.15251">
        <ele>2294.61</ele>
        <time>2018-03-08T12:15:50Z</time>
      </trkpt>
      <trkpt lat="42.94997" lon="0.15232">
        <ele>2287.93</ele>
        <time>2018-03-08T12:15:56Z</time>
      </trkpt>
      <trkpt lat="42.94984" lon="0.1521">
        <ele>2282.87</ele>
        <time>2018-03-08T12:16:01Z</time>
      </trkpt>
      <trkpt lat="42.94968" lon="0.15192">
        <ele>2277.95</ele>
        <time>2018-03-08T12:16:06Z</time>
      </trkpt>
      <trkpt lat="42.94957" lon="0.15164">
        <ele>2271.22</ele>
        <time>2018-03-08T12:16:12Z</time>
      </trkpt>
      <trkpt lat="42.94937" lon="0.15165">
        <ele>2268.53</ele>
        <time>2018-03-08T12:16:18Z</time>
      </trkpt>
      <trkpt lat="42.94918" lon="0.15167">
        <ele>2264.8</ele>
        <time>2018-03-08T12:16:27Z</time>
      </trkpt>
      <trkpt lat="42.94908" lon="0.1514">
        <ele>2257.29</ele>
        <time>2018-03-08T12:16:32Z</time>
      </trkpt>
      <trkpt lat="42.9489" lon="0.15136">
        <ele>2253.3</ele>
        <time>2018-03-08T12:16:38Z</time>
      </trkpt>
      <trkpt lat="42.94894" lon="0.15161">
        <ele>2248.61</ele>
        <time>2018-03-08T12:18:03Z</time>
      </trkpt>
      <trkpt lat="42.949" lon="0.15188">
        <ele>2244.95</ele>
        <time>2018-03-08T12:18:07Z</time>
      </trkpt>
      <trkpt lat="42.94885" lon="0.15206">
        <ele>2240.95</ele>
        <time>2018-03-08T12:18:13Z</time>
      </trkpt>
      <trkpt lat="42.94867" lon="0.15216">
        <ele>2236.95</ele>
        <time>2018-03-08T12:18:18Z</time>
      </trkpt>
      <trkpt lat="42.94849" lon="0.15234">
        <ele>2230.04</ele>
        <time>2018-03-08T12:18:23Z</time>
      </trkpt>
      <trkpt lat="42.94833" lon="0.15249">
        <ele>2224.98</ele>
        <time>2018-03-08T12:18:27Z</time>
      </trkpt>
      <trkpt lat="42.94819" lon="0.15265">
        <ele>2217.44</ele>
        <time>2018-03-08T12:18:31Z</time>
      </trkpt>
      <trkpt lat="42.94801" lon="0.15277">
        <ele>2211.38</ele>
        <time>2018-03-08T12:18:34Z</time>
      </trkpt>
      <trkpt lat="42.94784" lon="0.15293">
        <ele>2201.5</ele>
        <time>2018-03-08T12:18:38Z</time>
      </trkpt>
      <trkpt lat="42.94767" lon="0.15307">
        <ele>2191.98</ele>
        <time>2018-03-08T12:18:42Z</time>
      </trkpt>
      <trkpt lat="42.94757" lon="0.15328">
        <ele>2175.3</ele>
        <time>2018-03-08T12:19:39Z</time>
      </trkpt>
      <trkpt lat="42.94744" lon="0.1535">
        <ele>2169.96</ele>
        <time>2018-03-08T12:19:43Z</time>
      </trkpt>
      <trkpt lat="42.94736" lon="0.15377">
        <ele>2165.17</ele>
        <time>2018-03-08T12:19:47Z</time>
      </trkpt>
      <trkpt lat="42.94744" lon="0.15403">
        <ele>2156.97</ele>
        <time>2018-03-08T12:19:52Z</time>
      </trkpt>
      <trkpt lat="42.94749" lon="0.1543">
        <ele>2153.56</ele>
        <time>2018-03-08T12:19:58Z</time>
      </trkpt>
      <trkpt lat="42.94733" lon="0.15414">
        <ele>2147.94</ele>
        <time>2018-03-08T12:20:25Z</time>
      </trkpt>
      <trkpt lat="42.94718" lon="0.15391">
        <ele>2143.95</ele>
        <time>2018-03-08T12:20:29Z</time>
      </trkpt>
      <trkpt lat="42.94699" lon="0.15401">
        <ele>2140.86</ele>
        <time>2018-03-08T12:20:36Z</time>
      </trkpt>
      <trkpt lat="42.9468" lon="0.15416">
        <ele>2135.25</ele>
        <time>2018-03-08T12:20:42Z</time>
      </trkpt>
      <trkpt lat="42.94662" lon="0.15421">
        <ele>2128.29</ele>
        <time>2018-03-08T12:20:46Z</time>
      </trkpt>
      <trkpt lat="42.94644" lon="0.15431">
        <ele>2121.25</ele>
        <time>2018-03-08T12:20:51Z</time>
      </trkpt>
      <trkpt lat="42.94627" lon="0.15439">
        <ele>2113.35</ele>
        <time>2018-03-08T12:20:56Z</time>
      </trkpt>
      <trkpt lat="42.94609" lon="0.15445">
        <ele>2102.66</ele>
        <time>2018-03-08T12:21:01Z</time>
      </trkpt>
      <trkpt lat="42.94589" lon="0.15455">
        <ele>2092.48</ele>
        <time>2018-03-08T12:21:05Z</time>
      </trkpt>
      <trkpt lat="42.9457" lon="0.15457">
        <ele>2084.71</ele>
        <time>2018-03-08T12:21:08Z</time>
      </trkpt>
      <trkpt lat="42.9456" lon="0.15479">
        <ele>2055.64</ele>
        <time>2018-03-08T12:24:41Z</time>
      </trkpt>
      <trkpt lat="42.94541" lon="0.15481">
        <ele>2050.83</ele>
        <time>2018-03-08T12:24:50Z</time>
      </trkpt>
      <trkpt lat="42.94519" lon="0.15471">
        <ele>2047.86</ele>
        <time>2018-03-08T12:24:54Z</time>
      </trkpt>
      <trkpt lat="42.94496" lon="0.15474">
        <ele>2044.65</ele>
        <time>2018-03-08T12:24:59Z</time>
      </trkpt>
      <trkpt lat="42.94476" lon="0.15485">
        <ele>2042.92</ele>
        <time>2018-03-08T12:25:02Z</time>
      </trkpt>
      <trkpt lat="42.94461" lon="0.15512">
        <ele>2038.04</ele>
        <time>2018-03-08T12:25:06Z</time>
      </trkpt>
      <trkpt lat="42.94452" lon="0.1554">
        <ele>2027.85</ele>
        <time>2018-03-08T12:25:24Z</time>
      </trkpt>
      <trkpt lat="42.94436" lon="0.15562">
        <ele>2021.11</ele>
        <time>2018-03-08T12:25:29Z</time>
      </trkpt>
      <trkpt lat="42.94414" lon="0.1558">
        <ele>2015.36</ele>
        <time>2018-03-08T12:25:33Z</time>
      </trkpt>
      <trkpt lat="42.94406" lon="0.15609">
        <ele>2010.78</ele>
        <time>2018-03-08T12:25:36Z</time>
      </trkpt>
      <trkpt lat="42.94383" lon="0.15621">
        <ele>2008.21</ele>
        <time>2018-03-08T12:25:40Z</time>
      </trkpt>
      <trkpt lat="42.94364" lon="0.15626">
        <ele>2004.96</ele>
        <time>2018-03-08T12:25:43Z</time>
      </trkpt>
      <trkpt lat="42.94346" lon="0.1564">
        <ele>1987.56</ele>
        <time>2018-03-08T12:27:24Z</time>
      </trkpt>
      <trkpt lat="42.94328" lon="0.15647">
        <ele>1982.87</ele>
        <time>2018-03-08T12:27:28Z</time>
      </trkpt>
      <trkpt lat="42.9432" lon="0.15672">
        <ele>1978.87</ele>
        <time>2018-03-08T12:27:32Z</time>
      </trkpt>
      <trkpt lat="42.94312" lon="0.15694">
        <ele>1974.92</ele>
        <time>2018-03-08T12:27:38Z</time>
      </trkpt>
      <trkpt lat="42.94294" lon="0.1569">
        <ele>1969.94</ele>
        <time>2018-03-08T12:27:44Z</time>
      </trkpt>
      <trkpt lat="42.94276" lon="0.157">
        <ele>1963.78</ele>
        <time>2018-03-08T12:27:51Z</time>
      </trkpt>
      <trkpt lat="42.94257" lon="0.15705">
        <ele>1956.84</ele>
        <time>2018-03-08T12:27:57Z</time>
      </trkpt>
      <trkpt lat="42.94237" lon="0.15702">
        <ele>1948.07</ele>
        <time>2018-03-08T12:28:04Z</time>
      </trkpt>
      <trkpt lat="42.94216" lon="0.15706">
        <ele>1935.67</ele>
        <time>2018-03-08T12:28:10Z</time>
      </trkpt>
      <trkpt lat="42.94193" lon="0.15703">
        <ele>1923.55</ele>
        <time>2018-03-08T12:28:15Z</time>
      </trkpt>
      <trkpt lat="42.94174" lon="0.15713">
        <ele>1909.63</ele>
        <time>2018-03-08T12:28:20Z</time>
      </trkpt>
      <trkpt lat="42.94155" lon="0.15705">
        <ele>1905.97</ele>
        <time>2018-03-08T12:28:23Z</time>
      </trkpt>
      <trkpt lat="42.94137" lon="0.15706">
        <ele>1902.04</ele>
        <time>2018-03-08T12:28:26Z</time>
      </trkpt>
      <trkpt lat="42.9413" lon="0.1573">
        <ele>1889.71</ele>
        <time>2018-03-08T12:30:20Z</time>
      </trkpt>
      <trkpt lat="42.94132" lon="0.15761">
        <ele>1886.65</ele>
        <time>2018-03-08T12:30:24Z</time>
      </trkpt>
      <trkpt lat="42.94126" lon="0.1579">
        <ele>1884.62</ele>
        <time>2018-03-08T12:30:28Z</time>
      </trkpt>
      <trkpt lat="42.94117" lon="0.15819">
        <ele>1880.95</ele>
        <time>2018-03-08T12:30:32Z</time>
      </trkpt>
      <trkpt lat="42.94104" lon="0.1584">
        <ele>1878.92</ele>
        <time>2018-03-08T12:30:35Z</time>
      </trkpt>
      <trkpt lat="42.9409" lon="0.15857">
        <ele>1876.86</ele>
        <time>2018-03-08T12:30:38Z</time>
      </trkpt>
      <trkpt lat="42.94077" lon="0.15874">
        <ele>1873.95</ele>
        <time>2018-03-08T12:30:41Z</time>
      </trkpt>
      <trkpt lat="42.94063" lon="0.15893">
        <ele>1869.28</ele>
        <time>2018-03-08T12:30:44Z</time>
      </trkpt>
      <trkpt lat="42.9405" lon="0.15911">
        <ele>1865.26</ele>
        <time>2018-03-08T12:30:47Z</time>
      </trkpt>
      <trkpt lat="42.94038" lon="0.15929">
        <ele>1861.96</ele>
        <time>2018-03-08T12:30:50Z</time>
      </trkpt>
      <trkpt lat="42.94022" lon="0.15951">
        <ele>1858.94</ele>
        <time>2018-03-08T12:30:54Z</time>
      </trkpt>
      <trkpt lat="42.94005" lon="0.15971">
        <ele>1855.94</ele>
        <time>2018-03-08T12:30:58Z</time>
      </trkpt>
      <trkpt lat="42.93989" lon="0.15993">
        <ele>1852.86</ele>
        <time>2018-03-08T12:31:02Z</time>
      </trkpt>
      <trkpt lat="42.9397" lon="0.16003">
        <ele>1849.86</ele>
        <time>2018-03-08T12:31:06Z</time>
      </trkpt>
      <trkpt lat="42.93958" lon="0.16024">
        <ele>1846.86</ele>
        <time>2018-03-08T12:31:10Z</time>
      </trkpt>
      <trkpt lat="42.93938" lon="0.16024">
        <ele>1831.95</ele>
        <time>2018-03-08T12:32:31Z</time>
      </trkpt>
      <trkpt lat="42.93921" lon="0.16038">
        <ele>1826.93</ele>
        <time>2018-03-08T12:32:37Z</time>
      </trkpt>
      <trkpt lat="42.93902" lon="0.16043">
        <ele>1822.84</ele>
        <time>2018-03-08T12:32:43Z</time>
      </trkpt>
      <trkpt lat="42.93883" lon="0.16055">
        <ele>1815.25</ele>
        <time>2018-03-08T12:32:49Z</time>
      </trkpt>
      <trkpt lat="42.93864" lon="0.1605">
        <ele>1809.26</ele>
        <time>2018-03-08T12:32:53Z</time>
      </trkpt>
      <trkpt lat="42.93862" lon="0.16075">
        <ele>1803.96</ele>
        <time>2018-03-08T12:32:57Z</time>
      </trkpt>
      <trkpt lat="42.93844" lon="0.1608">
        <ele>1788.9</ele>
        <time>2018-03-08T12:33:13Z</time>
      </trkpt>
      <trkpt lat="42.93825" lon="0.16099">
        <ele>1783.96</ele>
        <time>2018-03-08T12:33:18Z</time>
      </trkpt>
      <trkpt lat="42.93811" lon="0.16118">
        <ele>1781.92</ele>
        <time>2018-03-08T12:33:21Z</time>
      </trkpt>
      <trkpt lat="42.93798" lon="0.16142">
        <ele>1772.38</ele>
        <time>2018-03-08T12:33:26Z</time>
      </trkpt>
      <trkpt lat="42.93786" lon="0.16164">
        <ele>1768.05</ele>
        <time>2018-03-08T12:33:29Z</time>
      </trkpt>
      <trkpt lat="42.93772" lon="0.16182">
        <ele>1764.56</ele>
        <time>2018-03-08T12:33:34Z</time>
      </trkpt>
      <trkpt lat="42.93757" lon="0.16201">
        <ele>1759.03</ele>
        <time>2018-03-08T12:33:40Z</time>
      </trkpt>
      <trkpt lat="42.93742" lon="0.16219">
        <ele>1753.98</ele>
        <time>2018-03-08T12:33:44Z</time>
      </trkpt>
      <trkpt lat="42.93725" lon="0.16234">
        <ele>1749.64</ele>
        <time>2018-03-08T12:33:50Z</time>
      </trkpt>
      <trkpt lat="42.93709" lon="0.16247">
        <ele>1745.94</ele>
        <time>2018-03-08T12:33:55Z</time>
      </trkpt>
      <trkpt lat="42.93694" lon="0.1626">
        <ele>1743.83</ele>
        <time>2018-03-08T12:34:00Z</time>
      </trkpt>
      <trkpt lat="42.9368" lon="0.16276">
        <ele>1741.53</ele>
        <time>2018-03-08T12:34:08Z</time>
      </trkpt>
      <trkpt lat="42.93669" lon="0.16296">
        <ele>1741.52</ele>
        <time>2018-03-08T12:40:58Z</time>
      </trkpt>
      <trkpt lat="42.93656" lon="0.16315">
        <ele>1739.55</ele>
        <time>2018-03-08T12:41:03Z</time>
      </trkpt>
      <trkpt lat="42.93643" lon="0.16335">
        <ele>1738.52</ele>
        <time>2018-03-08T12:41:09Z</time>
      </trkpt>
      <trkpt lat="42.93632" lon="0.16356">
        <ele>1738.52</ele>
        <time>2018-03-08T12:41:15Z</time>
      </trkpt>
      <trkpt lat="42.93617" lon="0.16375">
        <ele>1736.85</ele>
        <time>2018-03-08T12:41:21Z</time>
      </trkpt>
      <trkpt lat="42.93605" lon="0.16397">
        <ele>1733.86</ele>
        <time>2018-03-08T12:41:25Z</time>
      </trkpt>
      <trkpt lat="42.93591" lon="0.16423">
        <ele>1730.94</ele>
        <time>2018-03-08T12:41:29Z</time>
      </trkpt>
      <trkpt lat="42.93574" lon="0.1645">
        <ele>1725.43</ele>
        <time>2018-03-08T12:41:32Z</time>
      </trkpt>
      <trkpt lat="42.9356" lon="0.16469">
        <ele>1722.08</ele>
        <time>2018-03-08T12:41:34Z</time>
      </trkpt>
      <trkpt lat="42.93546" lon="0.16487">
        <ele>1719.96</ele>
        <time>2018-03-08T12:41:36Z</time>
      </trkpt>
      <trkpt lat="42.93533" lon="0.16505">
        <ele>1717.95</ele>
        <time>2018-03-08T12:41:38Z</time>
      </trkpt>
      <trkpt lat="42.93517" lon="0.16524">
        <ele>1716.56</ele>
        <time>2018-03-08T12:41:41Z</time>
      </trkpt>
      <trkpt lat="42.93491" lon="0.16528">
        <ele>1709.47</ele>
        <time>2018-03-08T12:41:44Z</time>
      </trkpt>
      <trkpt lat="42.93475" lon="0.16552">
        <ele>1705.69</ele>
        <time>2018-03-08T12:41:47Z</time>
      </trkpt>
      <trkpt lat="42.93466" lon="0.16577">
        <ele>1704.53</ele>
        <time>2018-03-08T12:41:51Z</time>
      </trkpt>
      <trkpt lat="42.93457" lon="0.16604">
        <ele>1701.64</ele>
        <time>2018-03-08T12:41:56Z</time>
      </trkpt>
      <trkpt lat="42.93445" lon="0.16623">
        <ele>1701.52</ele>
        <time>2018-03-08T12:42:02Z</time>
      </trkpt>
      <trkpt lat="42.93432" lon="0.16646">
        <ele>1700.52</ele>
        <time>2018-03-08T12:42:17Z</time>
      </trkpt>
      <trkpt lat="42.9342" lon="0.16669">
        <ele>1697.56</ele>
        <time>2018-03-08T12:42:22Z</time>
      </trkpt>
      <trkpt lat="42.93409" lon="0.16694">
        <ele>1696.54</ele>
        <time>2018-03-08T12:42:28Z</time>
      </trkpt>
      <trkpt lat="42.93397" lon="0.1672">
        <ele>1693.94</ele>
        <time>2018-03-08T12:42:33Z</time>
      </trkpt>
      <trkpt lat="42.93385" lon="0.16746">
        <ele>1688.96</ele>
        <time>2018-03-08T12:42:37Z</time>
      </trkpt>
      <trkpt lat="42.93374" lon="0.16774">
        <ele>1685.86</ele>
        <time>2018-03-08T12:42:41Z</time>
      </trkpt>
      <trkpt lat="42.93361" lon="0.168">
        <ele>1682.94</ele>
        <time>2018-03-08T12:42:45Z</time>
      </trkpt>
      <trkpt lat="42.93351" lon="0.16824">
        <ele>1681.82</ele>
        <time>2018-03-08T12:42:50Z</time>
      </trkpt>
      <trkpt lat="42.93339" lon="0.16848">
        <ele>1680.55</ele>
        <time>2018-03-08T12:42:55Z</time>
      </trkpt>
      <trkpt lat="42.93329" lon="0.16872">
        <ele>1676.95</ele>
        <time>2018-03-08T12:42:59Z</time>
      </trkpt>
      <trkpt lat="42.93324" lon="0.169">
        <ele>1674.83</ele>
        <time>2018-03-08T12:43:04Z</time>
      </trkpt>
      <trkpt lat="42.93319" lon="0.16925">
        <ele>1670.85</ele>
        <time>2018-03-08T12:43:27Z</time>
      </trkpt>
      <trkpt lat="42.93307" lon="0.16947">
        <ele>1661.25</ele>
        <time>2018-03-08T12:43:34Z</time>
      </trkpt>
      <trkpt lat="42.93306" lon="0.16975">
        <ele>1659.55</ele>
        <time>2018-03-08T12:43:38Z</time>
      </trkpt>
      <trkpt lat="42.93305" lon="0.17003">
        <ele>1657.64</ele>
        <time>2018-03-08T12:43:43Z</time>
      </trkpt>
      <trkpt lat="42.93305" lon="0.17028">
        <ele>1656.61</ele>
        <time>2018-03-08T12:43:48Z</time>
      </trkpt>
      <trkpt lat="42.93307" lon="0.1706">
        <ele>1654.62</ele>
        <time>2018-03-08T12:43:53Z</time>
      </trkpt>
      <trkpt lat="42.93307" lon="0.17085">
        <ele>1650.24</ele>
        <time>2018-03-08T12:44:07Z</time>
      </trkpt>
      <trkpt lat="42.9329" lon="0.17072">
        <ele>1646.16</ele>
        <time>2018-03-08T12:44:11Z</time>
      </trkpt>
      <trkpt lat="42.93274" lon="0.17086">
        <ele>1637.34</ele>
        <time>2018-03-08T12:44:17Z</time>
      </trkpt>
      <trkpt lat="42.93267" lon="0.17112">
        <ele>1632.19</ele>
        <time>2018-03-08T12:44:21Z</time>
      </trkpt>
      <trkpt lat="42.93272" lon="0.17136">
        <ele>1629.52</ele>
        <time>2018-03-08T12:45:25Z</time>
      </trkpt>
      <trkpt lat="42.93266" lon="0.1716">
        <ele>1626.53</ele>
        <time>2018-03-08T12:45:50Z</time>
      </trkpt>
      <trkpt lat="42.93267" lon="0.17185">
        <ele>1626.91</ele>
        <time>2018-03-08T12:46:46Z</time>
      </trkpt>
      <trkpt lat="42.93265" lon="0.17211">
        <ele>1622.94</ele>
        <time>2018-03-08T12:46:51Z</time>
      </trkpt>
      <trkpt lat="42.9326" lon="0.17237">
        <ele>1619.25</ele>
        <time>2018-03-08T12:46:54Z</time>
      </trkpt>
      <trkpt lat="42.93256" lon="0.17267">
        <ele>1617.36</ele>
        <time>2018-03-08T12:46:57Z</time>
      </trkpt>
      <trkpt lat="42.93249" lon="0.17292">
        <ele>1616.54</ele>
        <time>2018-03-08T12:47:00Z</time>
      </trkpt>
      <trkpt lat="42.93245" lon="0.17317">
        <ele>1614.83</ele>
        <time>2018-03-08T12:47:04Z</time>
      </trkpt>
      <trkpt lat="42.93234" lon="0.1734">
        <ele>1613.55</ele>
        <time>2018-03-08T12:47:09Z</time>
      </trkpt>
      <trkpt lat="42.93226" lon="0.17365">
        <ele>1614.22</ele>
        <time>2018-03-08T12:47:17Z</time>
      </trkpt>
      <trkpt lat="42.93226" lon="0.17389">
        <ele>1612.52</ele>
        <time>2018-03-08T12:48:02Z</time>
      </trkpt>
      <trkpt lat="42.93214" lon="0.17414">
        <ele>1611.64</ele>
        <time>2018-03-08T12:49:31Z</time>
      </trkpt>
      <trkpt lat="42.93212" lon="0.17444">
        <ele>1609.82</ele>
        <time>2018-03-08T12:49:36Z</time>
      </trkpt>
      <trkpt lat="42.93209" lon="0.17473">
        <ele>1608.55</ele>
        <time>2018-03-08T12:49:41Z</time>
      </trkpt>
      <trkpt lat="42.93216" lon="0.17496">
        <ele>1610.52</ele>
        <time>2018-03-08T12:50:06Z</time>
      </trkpt>
      <trkpt lat="42.93212" lon="0.17521">
        <ele>1609.52</ele>
        <time>2018-03-08T12:50:17Z</time>
      </trkpt>
      <trkpt lat="42.93219" lon="0.17544">
        <ele>1611.52</ele>
        <time>2018-03-08T12:50:50Z</time>
      </trkpt>
      <trkpt lat="42.93206" lon="0.17564">
        <ele>1612.52</ele>
        <time>2018-03-08T12:51:00Z</time>
      </trkpt>
      <trkpt lat="42.93191" lon="0.17582">
        <ele>1611.82</ele>
        <time>2018-03-08T12:53:42Z</time>
      </trkpt>
      <trkpt lat="42.93182" lon="0.17606">
        <ele>1609.83</ele>
        <time>2018-03-08T12:53:47Z</time>
      </trkpt>
      <trkpt lat="42.93174" lon="0.17629">
        <ele>1605.97</ele>
        <time>2018-03-08T12:53:50Z</time>
      </trkpt>
      <trkpt lat="42.93165" lon="0.17652">
        <ele>1604.62</ele>
        <time>2018-03-08T12:53:53Z</time>
      </trkpt>
      <trkpt lat="42.93155" lon="0.17678">
        <ele>1603.82</ele>
        <time>2018-03-08T12:53:57Z</time>
      </trkpt>
      <trkpt lat="42.93142" lon="0.17703">
        <ele>1602.55</ele>
        <time>2018-03-08T12:54:01Z</time>
      </trkpt>
      <trkpt lat="42.93131" lon="0.17726">
        <ele>1600.56</ele>
        <time>2018-03-08T12:54:05Z</time>
      </trkpt>
      <trkpt lat="42.93129" lon="0.17757">
        <ele>1598.91</ele>
        <time>2018-03-08T12:54:10Z</time>
      </trkpt>
      <trkpt lat="42.93127" lon="0.17782">
        <ele>1596.85</ele>
        <time>2018-03-08T12:54:14Z</time>
      </trkpt>
      <trkpt lat="42.93123" lon="0.17809">
        <ele>1595.52</ele>
        <time>2018-03-08T12:55:28Z</time>
      </trkpt>
      <trkpt lat="42.93109" lon="0.17829">
        <ele>1594.53</ele>
        <time>2018-03-08T12:55:35Z</time>
      </trkpt>
      <trkpt lat="42.93099" lon="0.17856">
        <ele>1593.52</ele>
        <time>2018-03-08T12:55:40Z</time>
      </trkpt>
      <trkpt lat="42.93088" lon="0.17878">
        <ele>1591.83</ele>
        <time>2018-03-08T12:55:44Z</time>
      </trkpt>
      <trkpt lat="42.93074" lon="0.17901">
        <ele>1589.85</ele>
        <time>2018-03-08T12:55:48Z</time>
      </trkpt>
      <trkpt lat="42.9306" lon="0.17923">
        <ele>1588.82</ele>
        <time>2018-03-08T12:55:53Z</time>
      </trkpt>
      <trkpt lat="42.9305" lon="0.17944">
        <ele>1587.55</ele>
        <time>2018-03-08T12:55:57Z</time>
      </trkpt>
      <trkpt lat="42.93041" lon="0.17966">
        <ele>1585.62</ele>
        <time>2018-03-08T12:56:01Z</time>
      </trkpt>
      <trkpt lat="42.93029" lon="0.17989">
        <ele>1583.85</ele>
        <time>2018-03-08T12:56:06Z</time>
      </trkpt>
      <trkpt lat="42.93017" lon="0.18011">
        <ele>1582.55</ele>
        <time>2018-03-08T12:56:10Z</time>
      </trkpt>
      <trkpt lat="42.93005" lon="0.18033">
        <ele>1580.82</ele>
        <time>2018-03-08T12:56:15Z</time>
      </trkpt>
      <trkpt lat="42.92991" lon="0.18057">
        <ele>1577.92</ele>
        <time>2018-03-08T12:56:19Z</time>
      </trkpt>
      <trkpt lat="42.92976" lon="0.18075">
        <ele>1574.94</ele>
        <time>2018-03-08T12:56:23Z</time>
      </trkpt>
      <trkpt lat="42.92963" lon="0.18093">
        <ele>1573.55</ele>
        <time>2018-03-08T12:56:27Z</time>
      </trkpt>
      <trkpt lat="42.92945" lon="0.1811">
        <ele>1571.83</ele>
        <time>2018-03-08T12:56:33Z</time>
      </trkpt>
      <trkpt lat="42.9293" lon="0.18124">
        <ele>1570.55</ele>
        <time>2018-03-08T12:56:37Z</time>
      </trkpt>
      <trkpt lat="42.92912" lon="0.18138">
        <ele>1568.53</ele>
        <time>2018-03-08T12:56:42Z</time>
      </trkpt>
      <trkpt lat="42.92896" lon="0.18152">
        <ele>1566.52</ele>
        <time>2018-03-08T12:57:10Z</time>
      </trkpt>
      <trkpt lat="42.92883" lon="0.18172">
        <ele>1565.54</ele>
        <time>2018-03-08T12:57:27Z</time>
      </trkpt>
      <trkpt lat="42.92869" lon="0.18188">
        <ele>1564.54</ele>
        <time>2018-03-08T12:57:41Z</time>
      </trkpt>
      <trkpt lat="42.92857" lon="0.18207">
        <ele>1563.12</ele>
        <time>2018-03-08T12:57:48Z</time>
      </trkpt>
      <trkpt lat="42.92846" lon="0.18232">
        <ele>1561.61</ele>
        <time>2018-03-08T12:57:53Z</time>
      </trkpt>
      <trkpt lat="42.92836" lon="0.18252">
        <ele>1560.55</ele>
        <time>2018-03-08T12:57:57Z</time>
      </trkpt>
      <trkpt lat="42.92823" lon="0.18274">
        <ele>1559.52</ele>
        <time>2018-03-08T12:58:02Z</time>
      </trkpt>
      <trkpt lat="42.92813" lon="0.18297">
        <ele>1557.85</ele>
        <time>2018-03-08T12:58:07Z</time>
      </trkpt>
      <trkpt lat="42.92813" lon="0.18322">
        <ele>1556.55</ele>
        <time>2018-03-08T12:58:11Z</time>
      </trkpt>
      <trkpt lat="42.92807" lon="0.18352">
        <ele>1553.94</ele>
        <time>2018-03-08T12:58:16Z</time>
      </trkpt>
      <trkpt lat="42.92803" lon="0.18378">
        <ele>1550.94</ele>
        <time>2018-03-08T12:58:20Z</time>
      </trkpt>
      <trkpt lat="42.92796" lon="0.18404">
        <ele>1548.62</ele>
        <time>2018-03-08T12:58:25Z</time>
      </trkpt>
      <trkpt lat="42.92781" lon="0.18418">
        <ele>1545.67</ele>
        <time>2018-03-08T12:58:29Z</time>
      </trkpt>
      <trkpt lat="42.92763" lon="0.18439">
        <ele>1540.98</ele>
        <time>2018-03-08T12:58:33Z</time>
      </trkpt>
      <trkpt lat="42.92745" lon="0.18453">
        <ele>1537.95</ele>
        <time>2018-03-08T12:58:36Z</time>
      </trkpt>
      <trkpt lat="42.92728" lon="0.18461">
        <ele>1534.95</ele>
        <time>2018-03-08T12:58:39Z</time>
      </trkpt>
      <trkpt lat="42.92711" lon="0.18474">
        <ele>1531.65</ele>
        <time>2018-03-08T12:58:44Z</time>
      </trkpt>
      <trkpt lat="42.92697" lon="0.18491">
        <ele>1529.61</ele>
        <time>2018-03-08T12:58:50Z</time>
      </trkpt>
      <trkpt lat="42.92685" lon="0.1851">
        <ele>1527.61</ele>
        <time>2018-03-08T12:58:56Z</time>
      </trkpt>
      <trkpt lat="42.92673" lon="0.1853">
        <ele>1523.62</ele>
        <time>2018-03-08T12:59:02Z</time>
      </trkpt>
      <trkpt lat="42.92662" lon="0.1855">
        <ele>1519.65</ele>
        <time>2018-03-08T12:59:10Z</time>
      </trkpt>
      <trkpt lat="42.9265" lon="0.18571">
        <ele>1513.91</ele>
        <time>2018-03-08T12:59:20Z</time>
      </trkpt>
      <trkpt lat="42.92638" lon="0.18594">
        <ele>1510.83</ele>
        <time>2018-03-08T12:59:27Z</time>
      </trkpt>
      <trkpt lat="42.9263" lon="0.18616">
        <ele>1506.52</ele>
        <time>2018-03-08T13:02:38Z</time>
      </trkpt>
      <trkpt lat="42.92626" lon="0.18641">
        <ele>1505.52</ele>
        <time>2018-03-08T13:02:59Z</time>
      </trkpt>
      <trkpt lat="42.9262" lon="0.18666">
        <ele>1502.82</ele>
        <time>2018-03-08T13:03:17Z</time>
      </trkpt>
      <trkpt lat="42.92615" lon="0.1869">
        <ele>1503.51</ele>
        <time>2018-03-08T13:03:36Z</time>
      </trkpt>
      <trkpt lat="42.92612" lon="0.18715">
        <ele>1504.51</ele>
        <time>2018-03-08T13:03:54Z</time>
      </trkpt>
      <trkpt lat="42.92612" lon="0.1874">
        <ele>1499.84</ele>
        <time>2018-03-08T13:04:12Z</time>
      </trkpt>
      <trkpt lat="42.92605" lon="0.18764">
        <ele>1494.83</ele>
        <time>2018-03-08T13:04:30Z</time>
      </trkpt>
      <trkpt lat="42.92599" lon="0.1879">
        <ele>1488.85</ele>
        <time>2018-03-08T13:04:46Z</time>
      </trkpt>
      <trkpt lat="42.92594" lon="0.18814">
        <ele>1485.82</ele>
        <time>2018-03-08T13:05:01Z</time>
      </trkpt>
      <trkpt lat="42.92594" lon="0.18839">
        <ele>1477.62</ele>
        <time>2018-03-08T13:05:15Z</time>
      </trkpt>
      <trkpt lat="42.92599" lon="0.18865">
        <ele>1474.52</ele>
        <time>2018-03-08T13:05:29Z</time>
      </trkpt>
      <trkpt lat="42.92607" lon="0.18888">
        <ele>1472.6</ele>
        <time>2018-03-08T13:05:43Z</time>
      </trkpt>
      <trkpt lat="42.92613" lon="0.18913">
        <ele>1469.55</ele>
        <time>2018-03-08T13:05:58Z</time>
      </trkpt>
      <trkpt lat="42.92612" lon="0.18938">
        <ele>1462.62</ele>
        <time>2018-03-08T13:06:12Z</time>
      </trkpt>
      <trkpt lat="42.92608" lon="0.18963">
        <ele>1456.55</ele>
        <time>2018-03-08T13:06:28Z</time>
      </trkpt>
      <trkpt lat="42.92605" lon="0.18989">
        <ele>1451.55</ele>
        <time>2018-03-08T13:06:44Z</time>
      </trkpt>
      <trkpt lat="42.92597" lon="0.19014">
        <ele>1446.52</ele>
        <time>2018-03-08T13:07:01Z</time>
      </trkpt>
      <trkpt lat="42.92593" lon="0.19039">
        <ele>1443.82</ele>
        <time>2018-03-08T13:07:19Z</time>
      </trkpt>
      <trkpt lat="42.92582" lon="0.1906">
        <ele>1440.52</ele>
        <time>2018-03-08T13:07:38Z</time>
      </trkpt>
      <trkpt lat="42.92581" lon="0.19085">
        <ele>1433.61</ele>
        <time>2018-03-08T13:09:25Z</time>
      </trkpt>
      <trkpt lat="42.92575" lon="0.19108">
        <ele>1428.53</ele>
        <time>2018-03-08T13:09:40Z</time>
      </trkpt>
      <trkpt lat="42.92569" lon="0.19131">
        <ele>1424.56</ele>
        <time>2018-03-08T13:09:55Z</time>
      </trkpt>
      <trkpt lat="42.92562" lon="0.19155">
        <ele>1423.52</ele>
        <time>2018-03-08T13:10:09Z</time>
      </trkpt>
      <trkpt lat="42.92555" lon="0.19179">
        <ele>1420.83</ele>
        <time>2018-03-08T13:10:23Z</time>
      </trkpt>
      <trkpt lat="42.92552" lon="0.19205">
        <ele>1421.52</ele>
        <time>2018-03-08T13:10:39Z</time>
      </trkpt>
      <trkpt lat="42.92547" lon="0.1923">
        <ele>1419.55</ele>
        <time>2018-03-08T13:10:54Z</time>
      </trkpt>
      <trkpt lat="42.92544" lon="0.19255">
        <ele>1418.52</ele>
        <time>2018-03-08T13:11:08Z</time>
      </trkpt>
      <trkpt lat="42.92539" lon="0.19279">
        <ele>1415.52</ele>
        <time>2018-03-08T13:11:24Z</time>
      </trkpt>
      <trkpt lat="42.9255" lon="0.19299">
        <ele>1414.52</ele>
        <time>2018-03-08T13:11:41Z</time>
      </trkpt>
      <trkpt lat="42.92566" lon="0.19311">
        <ele>1410.52</ele>
        <time>2018-03-08T13:11:58Z</time>
      </trkpt>
      <trkpt lat="42.92585" lon="0.19316">
        <ele>1406.55</ele>
        <time>2018-03-08T13:12:16Z</time>
      </trkpt>
      <trkpt lat="42.92603" lon="0.19317">
        <ele>1406.59</ele>
        <time>2018-03-08T13:12:34Z</time>
      </trkpt>
      <trkpt lat="42.92619" lon="0.1933">
        <ele>1409.6</ele>
        <time>2018-03-08T13:12:53Z</time>
      </trkpt>
      <trkpt lat="42.92632" lon="0.19347">
        <ele>1410.52</ele>
        <time>2018-03-08T13:13:09Z</time>
      </trkpt>
      <trkpt lat="42.92642" lon="0.19369">
        <ele>1409.52</ele>
        <time>2018-03-08T13:13:24Z</time>
      </trkpt>
      <trkpt lat="42.92652" lon="0.1939">
        <ele>1406.55</ele>
        <time>2018-03-08T13:13:38Z</time>
      </trkpt>
      <trkpt lat="42.92662" lon="0.19412">
        <ele>1400.56</ele>
        <time>2018-03-08T13:13:56Z</time>
      </trkpt>
      <trkpt lat="42.9267" lon="0.19434">
        <ele>1398.53</ele>
        <time>2018-03-08T13:14:12Z</time>
      </trkpt>
      <trkpt lat="42.92674" lon="0.1946">
        <ele>1397.55</ele>
        <time>2018-03-08T13:14:27Z</time>
      </trkpt>
      <trkpt lat="42.92681" lon="0.19484">
        <ele>1395.52</ele>
        <time>2018-03-08T13:14:42Z</time>
      </trkpt>
      <trkpt lat="42.92698" lon="0.19492">
        <ele>1393.55</ele>
        <time>2018-03-08T13:14:58Z</time>
      </trkpt>
      <trkpt lat="42.92712" lon="0.19511">
        <ele>1390.85</ele>
        <time>2018-03-08T13:15:14Z</time>
      </trkpt>
      <trkpt lat="42.92724" lon="0.19531">
        <ele>1390.52</ele>
        <time>2018-03-08T13:15:30Z</time>
      </trkpt>
      <trkpt lat="42.92726" lon="0.19555">
        <ele>1382.55</ele>
        <time>2018-03-08T13:15:48Z</time>
      </trkpt>
      <trkpt lat="42.92735" lon="0.19578">
        <ele>1380.82</ele>
        <time>2018-03-08T13:16:02Z</time>
      </trkpt>
      <trkpt lat="42.92741" lon="0.19603">
        <ele>1378.52</ele>
        <time>2018-03-08T13:16:18Z</time>
      </trkpt>
      <trkpt lat="42.92749" lon="0.19626">
        <ele>1373.83</ele>
        <time>2018-03-08T13:16:33Z</time>
      </trkpt>
      <trkpt lat="42.92762" lon="0.19646">
        <ele>1372.82</ele>
        <time>2018-03-08T13:16:47Z</time>
      </trkpt>
      <trkpt lat="42.92781" lon="0.1965">
        <ele>1371.52</ele>
        <time>2018-03-08T13:17:03Z</time>
      </trkpt>
      <trkpt lat="42.92799" lon="0.19645">
        <ele>1368.8</ele>
        <time>2018-03-08T13:17:18Z</time>
      </trkpt>
      <trkpt lat="42.92818" lon="0.19644">
        <ele>1372.52</ele>
        <time>2018-03-08T13:17:35Z</time>
      </trkpt>
      <trkpt lat="42.9282" lon="0.19669">
        <ele>1369.85</ele>
        <time>2018-03-08T13:17:55Z</time>
      </trkpt>
      <trkpt lat="42.92819" lon="0.19694">
        <ele>1358.86</ele>
        <time>2018-03-08T13:18:10Z</time>
      </trkpt>
      <trkpt lat="42.92822" lon="0.19718">
        <ele>1354.56</ele>
        <time>2018-03-08T13:18:24Z</time>
      </trkpt>
      <trkpt lat="42.92819" lon="0.19743">
        <ele>1352.61</ele>
        <time>2018-03-08T13:18:40Z</time>
      </trkpt>
      <trkpt lat="42.92812" lon="0.19765">
        <ele>1343.85</ele>
        <time>2018-03-08T13:18:57Z</time>
      </trkpt>
      <trkpt lat="42.92806" lon="0.19788">
        <ele>1338.85</ele>
        <time>2018-03-08T13:19:12Z</time>
      </trkpt>
      <trkpt lat="42.92815" lon="0.19812">
        <ele>1341.49</ele>
        <time>2018-03-08T13:19:27Z</time>
      </trkpt>
      <trkpt lat="42.92823" lon="0.19834">
        <ele>1341.64</ele>
        <time>2018-03-08T13:19:43Z</time>
      </trkpt>
      <trkpt lat="42.92831" lon="0.19856">
        <ele>1340.49</ele>
        <time>2018-03-08T13:19:55Z</time>
      </trkpt>
      <trkpt lat="42.92839" lon="0.1988">
        <ele>1337.61</ele>
        <time>2018-03-08T13:20:11Z</time>
      </trkpt>
      <trkpt lat="42.92847" lon="0.19903">
        <ele>1338.79</ele>
        <time>2018-03-08T13:20:26Z</time>
      </trkpt>
      <trkpt lat="42.92859" lon="0.19922">
        <ele>1340.22</ele>
        <time>2018-03-08T13:20:42Z</time>
      </trkpt>
      <trkpt lat="42.9287" lon="0.19944">
        <ele>1341.52</ele>
        <time>2018-03-08T13:20:58Z</time>
      </trkpt>
      <trkpt lat="42.92883" lon="0.19963">
        <ele>1337.56</ele>
        <time>2018-03-08T13:21:12Z</time>
      </trkpt>
      <trkpt lat="42.92895" lon="0.19982">
        <ele>1336.52</ele>
        <time>2018-03-08T13:21:24Z</time>
      </trkpt>
      <trkpt lat="42.92906" lon="0.20002">
        <ele>1334.61</ele>
        <time>2018-03-08T13:21:38Z</time>
      </trkpt>
      <trkpt lat="42.92919" lon="0.20019">
        <ele>1328.91</ele>
        <time>2018-03-08T13:21:50Z</time>
      </trkpt>
      <trkpt lat="42.92934" lon="0.20037">
        <ele>1325.82</ele>
        <time>2018-03-08T13:22:03Z</time>
      </trkpt>
      <trkpt lat="42.9295" lon="0.20051">
        <ele>1325.52</ele>
        <time>2018-03-08T13:22:17Z</time>
      </trkpt>
      <trkpt lat="42.92966" lon="0.20063">
        <ele>1322.55</ele>
        <time>2018-03-08T13:22:31Z</time>
      </trkpt>
      <trkpt lat="42.92981" lon="0.20077">
        <ele>1323.84</ele>
        <time>2018-03-08T13:22:45Z</time>
      </trkpt>
      <trkpt lat="42.92998" lon="0.20086">
        <ele>1321.54</ele>
        <time>2018-03-08T13:22:59Z</time>
      </trkpt>
      <trkpt lat="42.93014" lon="0.20099">
        <ele>1322.3</ele>
        <time>2018-03-08T13:23:12Z</time>
      </trkpt>
      <trkpt lat="42.9303" lon="0.20113">
        <ele>1321.52</ele>
        <time>2018-03-08T13:23:26Z</time>
      </trkpt>
      <trkpt lat="42.93046" lon="0.20127">
        <ele>1316.55</ele>
        <time>2018-03-08T13:23:42Z</time>
      </trkpt>
      <trkpt lat="42.93062" lon="0.20142">
        <ele>1311.82</ele>
        <time>2018-03-08T13:23:57Z</time>
      </trkpt>
      <trkpt lat="42.93079" lon="0.20151">
        <ele>1310.53</ele>
        <time>2018-03-08T13:24:12Z</time>
      </trkpt>
      <trkpt lat="42.93094" lon="0.20165">
        <ele>1308.53</ele>
        <time>2018-03-08T13:24:26Z</time>
      </trkpt>
      <trkpt lat="42.93107" lon="0.20184">
        <ele>1303.83</ele>
        <time>2018-03-08T13:24:40Z</time>
      </trkpt>
      <trkpt lat="42.93122" lon="0.20199">
        <ele>1301.53</ele>
        <time>2018-03-08T13:24:57Z</time>
      </trkpt>
      <trkpt lat="42.93138" lon="0.20211">
        <ele>1299.52</ele>
        <time>2018-03-08T13:25:12Z</time>
      </trkpt>
      <trkpt lat="42.93152" lon="0.20228">
        <ele>1298.51</ele>
        <time>2018-03-08T13:25:27Z</time>
      </trkpt>
      <trkpt lat="42.93165" lon="0.20246">
        <ele>1295.52</ele>
        <time>2018-03-08T13:25:42Z</time>
      </trkpt>
      <trkpt lat="42.93183" lon="0.2026">
        <ele>1291.55</ele>
        <time>2018-03-08T13:25:55Z</time>
      </trkpt>
      <trkpt lat="42.93199" lon="0.20273">
        <ele>1286.65</ele>
        <time>2018-03-08T13:26:06Z</time>
      </trkpt>
      <trkpt lat="42.93212" lon="0.2029">
        <ele>1281.85</ele>
        <time>2018-03-08T13:26:18Z</time>
      </trkpt>
      <trkpt lat="42.93228" lon="0.20304">
        <ele>1281.43</ele>
        <time>2018-03-08T13:26:32Z</time>
      </trkpt>
      <trkpt lat="42.93246" lon="0.2031">
        <ele>1280.52</ele>
        <time>2018-03-08T13:26:47Z</time>
      </trkpt>
      <trkpt lat="42.93262" lon="0.20323">
        <ele>1276.53</ele>
        <time>2018-03-08T13:27:00Z</time>
      </trkpt>
      <trkpt lat="42.93245" lon="0.2033">
        <ele>1273.52</ele>
        <time>2018-03-08T13:27:17Z</time>
      </trkpt>
      <trkpt lat="42.93226" lon="0.20328">
        <ele>1272.52</ele>
        <time>2018-03-08T13:27:32Z</time>
      </trkpt>
      <trkpt lat="42.93206" lon="0.20328">
        <ele>1271.52</ele>
        <time>2018-03-08T13:27:46Z</time>
      </trkpt>
      <trkpt lat="42.93188" lon="0.2033">
        <ele>1267.53</ele>
        <time>2018-03-08T13:28:01Z</time>
      </trkpt>
      <trkpt lat="42.9317" lon="0.20329">
        <ele>1265.59</ele>
        <time>2018-03-08T13:28:12Z</time>
      </trkpt>
      <trkpt lat="42.93152" lon="0.20327">
        <ele>1266.51</ele>
        <time>2018-03-08T13:28:27Z</time>
      </trkpt>
      <trkpt lat="42.93133" lon="0.20325">
        <ele>1265.64</ele>
        <time>2018-03-08T13:28:39Z</time>
      </trkpt>
      <trkpt lat="42.93116" lon="0.20318">
        <ele>1265.52</ele>
        <time>2018-03-08T13:28:52Z</time>
      </trkpt>
      <trkpt lat="42.93097" lon="0.20312">
        <ele>1264.52</ele>
        <time>2018-03-08T13:29:05Z</time>
      </trkpt>
      <trkpt lat="42.93079" lon="0.20302">
        <ele>1261.55</ele>
        <time>2018-03-08T13:29:18Z</time>
      </trkpt>
      <trkpt lat="42.93064" lon="0.20285">
        <ele>1259.8</ele>
        <time>2018-03-08T13:29:32Z</time>
      </trkpt>
      <trkpt lat="42.93047" lon="0.20274">
        <ele>1259.46</ele>
        <time>2018-03-08T13:29:46Z</time>
      </trkpt>
      <trkpt lat="42.93033" lon="0.20258">
        <ele>1256.85</ele>
        <time>2018-03-08T13:29:59Z</time>
      </trkpt>
      <trkpt lat="42.93016" lon="0.20248">
        <ele>1251.61</ele>
        <time>2018-03-08T13:30:13Z</time>
      </trkpt>
      <trkpt lat="42.93001" lon="0.20233">
        <ele>1251.51</ele>
        <time>2018-03-08T13:30:26Z</time>
      </trkpt>
      <trkpt lat="42.92985" lon="0.2022">
        <ele>1252.49</ele>
        <time>2018-03-08T13:30:40Z</time>
      </trkpt>
      <trkpt lat="42.9297" lon="0.20206">
        <ele>1254.52</ele>
        <time>2018-03-08T13:30:53Z</time>
      </trkpt>
      <trkpt lat="42.92954" lon="0.20193">
        <ele>1253.52</ele>
        <time>2018-03-08T13:31:07Z</time>
      </trkpt>
      <trkpt lat="42.92938" lon="0.20181">
        <ele>1254.52</ele>
        <time>2018-03-08T13:31:21Z</time>
      </trkpt>
      <trkpt lat="42.92921" lon="0.20169">
        <ele>1254.52</ele>
        <time>2018-03-08T13:31:35Z</time>
      </trkpt>
      <trkpt lat="42.92905" lon="0.20158">
        <ele>1256.5</ele>
        <time>2018-03-08T13:31:49Z</time>
      </trkpt>
      <trkpt lat="42.92888" lon="0.20146">
        <ele>1258.73</ele>
        <time>2018-03-08T13:32:03Z</time>
      </trkpt>
      <trkpt lat="42.92874" lon="0.20129">
        <ele>1258.59</ele>
        <time>2018-03-08T13:32:17Z</time>
      </trkpt>
      <trkpt lat="42.92861" lon="0.2011">
        <ele>1261.51</ele>
        <time>2018-03-08T13:32:39Z</time>
      </trkpt>
      <trkpt lat="42.92849" lon="0.20091">
        <ele>1262.44</ele>
        <time>2018-03-08T13:32:54Z</time>
      </trkpt>
      <trkpt lat="42.92836" lon="0.20072">
        <ele>1264.52</ele>
        <time>2018-03-08T13:33:09Z</time>
      </trkpt>
      <trkpt lat="42.92825" lon="0.20053">
        <ele>1264.73</ele>
        <time>2018-03-08T13:33:22Z</time>
      </trkpt>
      <trkpt lat="42.92812" lon="0.20035">
        <ele>1266.52</ele>
        <time>2018-03-08T13:33:36Z</time>
      </trkpt>
      <trkpt lat="42.92798" lon="0.20019">
        <ele>1270.49</ele>
        <time>2018-03-08T13:33:50Z</time>
      </trkpt>
      <trkpt lat="42.92784" lon="0.20002">
        <ele>1272.52</ele>
        <time>2018-03-08T13:34:04Z</time>
      </trkpt>
      <trkpt lat="42.9277" lon="0.19986">
        <ele>1274.52</ele>
        <time>2018-03-08T13:34:17Z</time>
      </trkpt>
      <trkpt lat="42.92757" lon="0.19968">
        <ele>1273.52</ele>
        <time>2018-03-08T13:34:30Z</time>
      </trkpt>
      <trkpt lat="42.92744" lon="0.19951">
        <ele>1275.5</ele>
        <time>2018-03-08T13:34:43Z</time>
      </trkpt>
      <trkpt lat="42.92729" lon="0.19933">
        <ele>1277.43</ele>
        <time>2018-03-08T13:34:57Z</time>
      </trkpt>
      <trkpt lat="42.92716" lon="0.19913">
        <ele>1277.55</ele>
        <time>2018-03-08T13:35:11Z</time>
      </trkpt>
      <trkpt lat="42.9271" lon="0.1989">
        <ele>1282.22</ele>
        <time>2018-03-08T13:35:28Z</time>
      </trkpt>
      <trkpt lat="42.92706" lon="0.19865">
        <ele>1285.51</ele>
        <time>2018-03-08T13:35:44Z</time>
      </trkpt>
      <trkpt lat="42.92701" lon="0.19841">
        <ele>1286.55</ele>
        <time>2018-03-08T13:36:02Z</time>
      </trkpt>
    </trkseg>
  </trk>
</gpx>